Time;durP1;ratioP1;P1;durP2;ratioP2;P2;SDS_P1;SDS_P2;PMS_P1;PMS_P2;Temp;Humidity;BMP_temperature;BMP_pressure;BME280_temperature;BME280_humidity;BME280_pressure;Samples;Min_cycle;Max_cycle;Signal;HPM_P1;HPM_P2
2023/10/12 00:01:23;;;;;;;1.42;1.33;;;;;;;;;;5020407;28;20022;-77
2023/10/12 00:03:55;;;;;;;4.22;2.00;;;;;;;;;;5020558;28;20026;-77
2023/10/12 00:06:21;;;;;;;1.00;1.00;;;;;;;;;;5019592;28;20779;-77
2023/10/12 00:08:48;;;;;;;1.63;1.10;;;;;;;;;;5000812;28;20080;-77
2023/10/12 00:11:19;;;;;;;1.35;1.25;;;;;;;;;;5003162;28;20033;-77
2023/10/12 00:13:47;;;;;;;1.83;1.20;;;;;;;;;;5022335;28;20086;-76
2023/10/12 00:16:19;;;;;;;1.65;1.25;;;;;;;;;;5022298;28;20409;-77
2023/10/12 00:18:46;;;;;;;1.63;1.20;;;;;;;;;;5021906;28;20101;-77
2023/10/12 00:21:25;;;;;;;1.00;1.00;;;;;;;;;;5021287;28;20389;-76
2023/10/12 00:23:52;;;;;;;1.48;1.15;;;;;;;;;;5021038;28;20033;-77
2023/10/12 00:26:18;;;;;;;1.55;1.30;;;;;;;;;;5021915;28;20049;-76
2023/10/12 00:28:45;;;;;;;1.40;1.30;;;;;;;;;;5020797;28;20034;-76
2023/10/12 00:31:19;;;;;;;1.45;1.30;;;;;;;;;;5022411;28;20022;-77
2023/10/12 00:33:48;;;;;;;1.00;1.00;;;;;;;;;;5006084;28;20048;-77
2023/10/12 00:36:24;;;;;;;1.30;1.20;;;;;;;;;;5021310;28;20030;-77
2023/10/12 00:38:56;;;;;;;2.05;1.38;;;;;;;;;;5022905;28;20408;-76
2023/10/12 00:41:24;;;;;;;1.00;0.93;;;;;;;;;;5004039;28;20472;-77
2023/10/12 00:44:07;;;;;;;1.67;1.38;;;;;;;;;;5022571;28;20059;-77
2023/10/12 00:49:20;;;;;;;1.17;1.08;;;;;;;;;;5022352;28;20116;-76
2023/10/12 00:51:51;;;;;;;1.20;1.10;;;;;;;;;;5024188;28;20056;-76
2023/10/12 00:54:27;;;;;;;1.40;1.23;;;;;;;;;;5021892;28;20030;-76
2023/10/12 00:57:01;;;;;;;0.80;0.80;;;;;;;;;;5004137;28;20036;-77
2023/10/12 00:59:28;;;;;;;0.80;0.80;;;;;;;;;;5019708;28;20444;-76
2023/10/12 01:01:54;;;;;;;1.60;1.23;;;;;;;;;;5005110;28;20088;-77
2023/10/12 01:04:22;;;;;;;0.93;0.93;;;;;;;;;;5022594;28;20026;-77
2023/10/12 01:06:48;;;;;;;0.80;0.80;;;;;;;;;;5022147;28;20056;-76
2023/10/12 01:09:21;;;;;;;1.25;1.15;;;;;;;;;;5022064;28;20030;-77
2023/10/12 01:11:52;;;;;;;;;;;;;;;;;;5020968;28;20026;-77
2023/10/12 01:14:18;;;;;;;1.02;0.93;;;;;;;;;;5004818;28;20380;-76
2023/10/12 01:19:19;;;;;;;1.05;1.02;;;;;;;;;;5025020;28;20030;-76
2023/10/12 01:21:45;;;;;;;1.30;1.20;;;;;;;;;;5031091;28;20033;-75
2023/10/12 01:24:11;;;;;;;1.58;1.08;;;;;;;;;;5026403;28;20030;-77
2023/10/12 01:26:38;;;;;;;1.60;1.13;;;;;;;;;;5027289;28;20096;-76
2023/10/12 01:29:04;;;;;;;1.08;1.00;;;;;;;;;;5017705;28;20038;-75
2023/10/12 01:31:30;;;;;;;1.08;0.98;;;;;;;;;;5016276;28;20461;-76
2023/10/12 01:33:58;;;;;;;1.42;0.90;;;;;;;;;;5009356;28;20026;-76
2023/10/12 01:36:27;;;;;;;1.38;1.17;;;;;;;;;;5023782;28;20021;-76
2023/10/12 01:41:42;;;;;;;1.95;1.40;;;;;;;;;;5023228;28;20033;-76
2023/10/12 01:44:12;;;;;;;1.92;1.30;;;;;;;;;;5021708;28;20087;-76
2023/10/12 01:46:41;;;;;;;2.35;1.63;;;;;;;;;;5025272;28;20435;-76
2023/10/12 01:49:11;;;;;;;2.33;1.70;;;;;;;;;;5029226;28;20032;-75
2023/10/12 01:51:40;;;;;;;1.40;1.30;;;;;;;;;;5030231;28;20094;-76
2023/10/12 01:54:11;;;;;;;1.50;1.15;;;;;;;;;;5011993;28;20048;-76
2023/10/12 01:56:38;;;;;;;1.63;1.45;;;;;;;;;;5023453;28;20113;-76
2023/10/12 01:59:07;;;;;;;2.03;1.40;;;;;;;;;;5021773;28;20030;-76
2023/10/12 02:01:34;;;;;;;1.92;1.27;;;;;;;;;;5021959;28;20049;-76
2023/10/12 02:04:02;;;;;;;1.00;0.90;;;;;;;;;;5020939;28;20018;-76
2023/10/12 02:06:29;;;;;;;1.25;1.15;;;;;;;;;;5005333;28;20485;-76
2023/10/12 02:09:02;;;;;;;1.23;1.13;;;;;;;;;;5024345;28;20029;-77
2023/10/12 02:11:37;;;;;;;1.35;1.05;;;;;;;;;;5003386;28;20499;-76
2023/10/12 02:14:03;;;;;;;1.10;1.00;;;;;;;;;;5006038;28;20030;-76
2023/10/12 02:16:32;;;;;;;1.10;1.00;;;;;;;;;;5019942;28;20037;-77
2023/10/12 02:19:04;;;;;;;1.13;0.90;;;;;;;;;;5019963;28;20026;-76
2023/10/12 02:21:33;;;;;;;1.73;1.17;;;;;;;;;;4988100;28;20098;-76
2023/10/12 02:26:53;;;;;;;1.10;0.98;;;;;;;;;;5028220;28;20048;-76
2023/10/12 02:29:20;;;;;;;1.52;1.05;;;;;;;;;;5034747;28;20029;-76
2023/10/12 02:34:16;;;;;;;1.75;1.30;;;;;;;;;;5030975;28;20034;-76
2023/10/12 02:37:00;;;;;;;0.90;0.90;;;;;;;;;;5031215;28;20022;-75
2023/10/12 02:39:27;;;;;;;0.95;0.95;;;;;;;;;;5014334;28;20084;-76
2023/10/12 02:42:10;;;;;;;1.00;0.93;;;;;;;;;;5032280;28;20048;-77
2023/10/12 02:44:57;;;;;;;1.45;1.00;;;;;;;;;;5015813;28;20392;-77
2023/10/12 02:47:24;;;;;;;0.82;0.82;;;;;;;;;;4999968;28;20405;-76
2023/10/12 02:50:01;;;;;;;0.80;0.80;;;;;;;;;;5026045;28;20026;-77
2023/10/12 02:52:30;;;;;;;0.77;0.77;;;;;;;;;;5026806;28;20425;-76
2023/10/12 02:54:56;;;;;;;1.27;1.20;;;;;;;;;;5025325;28;20401;-77
2023/10/12 02:57:28;;;;;;;0.85;0.85;;;;;;;;;;5026243;28;20493;-77
2023/10/12 02:59:57;;;;;;;1.42;1.25;;;;;;;;;;5027364;28;20032;-77
2023/10/12 03:02:32;;;;;;;1.20;1.10;;;;;;;;;;5026655;28;20021;-76
2023/10/12 03:05:04;;;;;;;1.38;0.93;;;;;;;;;;5025433;28;20033;-77
2023/10/12 03:07:31;;;;;;;1.35;1.20;;;;;;;;;;5006800;28;20026;-77
2023/10/12 03:10:00;;;;;;;1.33;1.23;;;;;;;;;;5023413;28;20029;-76
2023/10/12 03:12:32;;;;;;;0.95;0.95;;;;;;;;;;5024526;28;20078;-76
2023/10/12 03:14:58;;;;;;;0.80;0.80;;;;;;;;;;5006091;28;20028;-76
2023/10/12 03:17:26;;;;;;;1.50;1.10;;;;;;;;;;5021307;28;20021;-76
2023/10/12 03:19:55;;;;;;;1.10;1.00;;;;;;;;;;5020810;28;20461;-77
2023/10/12 03:22:34;;;;;;;1.00;0.90;;;;;;;;;;5021063;28;20022;-77
2023/10/12 03:25:19;;;;;;;0.98;0.98;;;;;;;;;;5024077;28;20028;-76
2023/10/12 03:27:50;;;;;;;0.98;0.88;;;;;;;;;;5003578;28;20052;-77
2023/10/12 03:30:17;;;;;;;0.98;0.88;;;;;;;;;;5004932;28;20378;-77
2023/10/12 03:32:44;;;;;;;1.27;0.82;;;;;;;;;;5021613;28;20029;-76
2023/10/12 03:35:22;;;;;;;1.00;0.98;;;;;;;;;;5022266;28;20022;-76
2023/10/12 03:37:52;;;;;;;0.98;0.73;;;;;;;;;;5002045;28;20481;-77
2023/10/12 03:43:10;;;;;;;1.67;1.20;;;;;;;;;;5015631;28;20428;-76
2023/10/12 03:45:59;;;;;;;1.77;1.27;;;;;;;;;;5001949;28;20030;-75
2023/10/12 03:48:26;;;;;;;1.35;1.23;;;;;;;;;;5027781;28;20021;-76
2023/10/12 03:51:26;;;;;;;1.33;0.85;;;;;;;;;;5035672;28;20013;-76
2023/10/12 03:53:56;;;;;;;1.23;1.00;;;;;;;;;;5033624;28;20046;-76
2023/10/12 03:56:23;;;;;;;1.48;1.20;;;;;;;;;;5034710;28;20139;-76
2023/10/12 03:58:58;;;;;;;1.35;1.20;;;;;;;;;;5033967;28;20018;-77
2023/10/12 04:01:29;;;;;;;1.25;1.15;;;;;;;;;;5031523;28;20018;-77
2023/10/12 04:03:58;;;;;;;1.80;1.15;;;;;;;;;;5017162;28;20029;-76
2023/10/12 04:06:46;;;;;;;1.80;1.23;;;;;;;;;;5018126;28;20033;-76
2023/10/12 04:09:15;;;;;;;1.00;0.90;;;;;;;;;;5029839;28;20056;-76
2023/10/12 04:11:53;;;;;;;1.95;1.30;;;;;;;;;;5031896;28;20101;-76
2023/10/12 04:15:06;;;;;;;2.88;1.38;;;;;;;;;;5036217;28;20033;-75
2023/10/12 04:25:59;;;;;;;1.13;1.05;;;;;;;;;;5034043;28;20030;-75
2023/10/12 04:28:08;;;;;;;1.77;1.50;;;;;;;;;;5024980;28;20030;-76
2023/10/12 04:33:24;;;;;;;1.00;1.00;;;;;;;;;;5034119;28;20057;-76
2023/10/12 04:38:28;;;;;;;1.35;0.95;;;;;;;;;;5026047;28;20045;-77
2023/10/12 04:43:40;;;;;;;1.30;1.20;;;;;;;;;;5036342;28;20101;-76
2023/10/12 04:48:32;;;;;;;0.75;0.75;;;;;;;;;;5036709;28;20015;-76
2023/10/12 04:50:59;;;;;;;0.98;0.90;;;;;;;;;;5036282;28;20014;-75
2023/10/12 04:53:35;;;;;;;0.98;0.90;;;;;;;;;;5035538;28;20038;-75
2023/10/12 04:56:09;;;;;;;0.73;0.73;;;;;;;;;;5025957;28;20026;-76
2023/10/12 04:58:36;;;;;;;0.70;0.70;;;;;;;;;;4996827;28;20501;-77
2023/10/12 05:01:22;;;;;;;0.93;0.85;;;;;;;;;;5017654;28;20065;-76
2023/10/12 05:04:05;;;;;;;0.77;0.77;;;;;;;;;;5017259;28;20022;-75
2023/10/12 05:06:34;;;;;;;0.80;0.80;;;;;;;;;;5017703;28;20029;-77
2023/10/12 05:09:10;;;;;;;0.60;0.60;;;;;;;;;;5002907;28;20057;-78
2023/10/12 05:11:36;;;;;;;0.70;0.70;;;;;;;;;;5000788;28;20065;-77
2023/10/12 05:14:11;;;;;;;0.70;0.70;;;;;;;;;;5017410;28;20595;-77
2023/10/12 05:16:42;;;;;;;0.80;0.80;;;;;;;;;;5001779;28;20029;-76
2023/10/12 05:19:09;;;;;;;0.90;0.90;;;;;;;;;;5017331;28;20018;-77
2023/10/12 05:21:35;;;;;;;0.90;0.90;;;;;;;;;;5003970;28;20044;-76
2023/10/12 05:24:01;;;;;;;0.82;0.82;;;;;;;;;;4997305;28;20031;-76
2023/10/12 05:26:27;;;;;;;1.00;0.95;;;;;;;;;;4997397;28;20101;-76
2023/10/12 05:29:08;;;;;;;2.10;1.38;;;;;;;;;;4997706;28;20022;-77
2023/10/12 05:31:39;;;;;;;0.97;0.90;;;;;;;;;;4980731;28;20390;-77
2023/10/12 05:34:52;;;;;;;1.25;1.15;;;;;;;;;;4997099;28;20030;-76
2023/10/12 05:36:54;;;;;;;1.63;1.33;;;;;;;;;;4994912;28;20419;-77
2023/10/12 05:39:22;;;;;;;3.78;1.40;;;;;;;;;;4998113;28;20022;-76
2023/10/12 05:41:48;;;;;;;1.75;1.42;;;;;;;;;;5007565;28;20026;-77
2023/10/12 05:44:15;;;;;;;1.20;1.10;;;;;;;;;;5001606;28;20037;-81
2023/10/12 05:46:45;;;;;;;1.60;1.10;;;;;;;;;;4999253;28;20034;-77
2023/10/12 05:49:16;;;;;;;1.52;1.27;;;;;;;;;;5016607;28;20022;-77
2023/10/12 05:52:05;;;;;;;2.05;1.25;;;;;;;;;;4992883;28;20037;-75
2023/10/12 05:54:32;;;;;;;0.90;0.90;;;;;;;;;;4965076;28;20033;-77
2023/10/12 05:57:03;;;;;;;1.13;0.95;;;;;;;;;;4979130;28;20019;-77
2023/10/12 05:59:29;;;;;;;1.08;0.98;;;;;;;;;;4978422;28;20541;-76
2023/10/12 06:01:56;;;;;;;1.33;1.23;;;;;;;;;;4999883;28;20022;-77
2023/10/12 06:04:22;;;;;;;1.15;1.05;;;;;;;;;;5007730;28;20132;-77
2023/10/12 06:06:51;;;;;;;1.15;1.13;;;;;;;;;;4995438;28;20037;-76
2023/10/12 06:09:35;;;;;;;1.70;1.27;;;;;;;;;;4995610;28;20030;-77
2023/10/12 06:12:06;;;;;;;1.23;1.08;;;;;;;;;;4979591;28;20037;-77
2023/10/12 06:14:33;;;;;;;1.55;1.05;;;;;;;;;;5015219;28;20040;-76
2023/10/12 06:17:02;;;;;;;1.35;1.15;;;;;;;;;;5015387;28;20042;-76
2023/10/12 06:19:34;;;;;;;1.75;1.52;;;;;;;;;;5015059;28;20101;-77
2023/10/12 06:22:13;;;;;;;1.60;1.50;;;;;;;;;;5014872;28;20022;-76
2023/10/12 06:24:41;;;;;;;1.40;1.30;;;;;;;;;;4995381;28;20397;-76
2023/10/12 06:29:46;;;;;;;1.90;1.60;;;;;;;;;;4995995;28;20037;-77
2023/10/12 06:45:46;;;;;;;1.42;1.25;;;;;;;;;;5015864;28;20374;-77
2023/10/12 06:51:03;;;;;;;1.10;1.02;;;;;;;;;;5015443;28;20029;-76
2023/10/12 06:53:36;;;;;;;1.13;1.02;;;;;;;;;;4997222;28;20026;-76
2023/10/12 06:58:40;;;;;;;1.60;1.30;;;;;;;;;;5014768;28;20030;-76
2023/10/12 07:01:19;;;;;;;1.52;1.42;;;;;;;;;;5015520;28;20491;-77
2023/10/12 07:03:49;;;;;;;1.98;1.02;;;;;;;;;;4998378;28;20026;-76
2023/10/12 07:06:15;;;;;;;2.15;1.52;;;;;;;;;;4998267;28;20513;-76
2023/10/12 07:08:43;;;;;;;2.75;1.92;;;;;;;;;;4998463;28;20029;-77
2023/10/12 07:11:13;;;;;;;2.03;1.60;;;;;;;;;;5015788;28;20021;-77
2023/10/12 07:13:41;;;;;;;2.83;2.05;;;;;;;;;;4998299;28;20040;-77
2023/10/12 07:16:08;;;;;;;2.03;1.50;;;;;;;;;;4995802;28;20113;-77
2023/10/12 07:18:34;;;;;;;1.65;1.33;;;;;;;;;;4995195;28;20034;-77
2023/10/12 07:21:01;;;;;;;2.10;1.58;;;;;;;;;;4994977;28;20026;-77
2023/10/12 07:23:36;;;;;;;1.80;1.55;;;;;;;;;;4993867;28;20393;-77
2023/10/12 07:26:12;;;;;;;2.30;1.50;;;;;;;;;;5010883;28;20033;-76
2023/10/12 07:28:41;;;;;;;2.10;1.63;;;;;;;;;;4994511;28;20026;-77
2023/10/12 07:33:52;;;;;;;2.22;1.85;;;;;;;;;;4994082;28;20026;-77
2023/10/12 07:36:18;;;;;;;1.60;1.50;;;;;;;;;;5009986;28;20067;-77
2023/10/12 07:38:46;;;;;;;1.63;1.50;;;;;;;;;;5013957;28;20441;-76
2023/10/12 07:41:13;;;;;;;2.10;1.45;;;;;;;;;;5013473;28;20109;-77
2023/10/12 07:43:39;;;;;;;1.77;1.50;;;;;;;;;;5013476;28;20534;-78
2023/10/12 07:46:24;;;;;;;1.50;1.40;;;;;;;;;;5014929;28;20041;-77
2023/10/12 07:48:51;;;;;;;2.13;1.42;;;;;;;;;;5016820;28;20021;-77
2023/10/12 07:51:24;;;;;;;2.13;1.55;;;;;;;;;;5015764;28;20404;-77
2023/10/12 07:53:56;;;;;;;2.92;1.85;;;;;;;;;;5030957;28;20022;-76
2023/10/12 07:56:22;;;;;;;1.48;1.38;;;;;;;;;;5036891;28;20038;-76
2023/10/12 07:58:57;;;;;;;2.22;1.92;;;;;;;;;;5035920;28;20033;-77
2023/10/12 08:03:52;;;;;;;2.03;1.80;;;;;;;;;;5036284;28;20072;-76
2023/10/12 08:06:31;;;;;;;1.60;1.50;;;;;;;;;;5019454;28;20112;-76
2023/10/12 08:09:04;;;;;;;2.40;2.20;;;;;;;;;;5032812;28;20170;-77
2023/10/12 08:11:34;;;;;;;3.60;2.45;;;;;;;;;;5014047;28;20037;-77
2023/10/12 08:14:39;;;;;;;1.80;1.65;;;;;;;;;;5014803;28;20026;-77
2023/10/12 08:19:42;;;;;;;2.15;1.48;;;;;;;;;;5014679;28;20077;-77
2023/10/12 08:22:22;;;;;;;1.67;1.58;;;;;;;;;;5001563;28;20026;-77
2023/10/12 08:24:52;;;;;;;2.17;1.92;;;;;;;;;;4997167;28;20076;-77
2023/10/12 08:27:19;;;;;;;2.20;1.85;;;;;;;;;;5013935;28;20038;-77
2023/10/12 08:32:12;;;;;;;1.65;1.55;;;;;;;;;;5016642;28;20030;-76
2023/10/12 08:40:07;;;;;;;2.25;1.85;;;;;;;;;;5037395;28;20025;-76
2023/10/12 08:45:15;;;;;;;2.30;1.90;;;;;;;;;;4998688;28;20034;-77
2023/10/12 08:47:48;;;;;;;2.80;2.20;;;;;;;;;;5014264;28;20026;-77
2023/10/12 08:52:53;;;;;;;3.83;2.17;;;;;;;;;;5027979;28;20060;-76
2023/10/12 08:55:24;;;;;;;3.90;2.10;;;;;;;;;;5017119;28;20425;-76
2023/10/12 08:58:13;;;;;;;2.67;2.25;;;;;;;;;;5018134;28;20088;-77
2023/10/12 09:00:44;;;;;;;2.65;2.17;;;;;;;;;;5019934;28;20034;-77
2023/10/12 09:05:48;;;;;;;4.38;3.10;;;;;;;;;;5017649;28;19932;-76
2023/10/12 09:13:22;;;;;;;4.30;2.78;;;;;;;;;;5016222;28;20112;-77
2023/10/12 09:15:54;;;;;;;5.57;2.72;;;;;;;;;;5016761;28;20046;-76
2023/10/12 09:18:21;;;;;;;3.58;2.67;;;;;;;;;;5016834;28;20045;-77
2023/10/12 09:23:49;;;;;;;3.33;2.95;;;;;;;;;;5017323;28;20488;-78
2023/10/12 09:26:19;;;;;;;2.65;2.25;;;;;;;;;;5001879;28;20382;-75
2023/10/12 09:31:14;;;;;;;3.13;2.20;;;;;;;;;;5017704;28;20436;-77
2023/10/12 09:36:26;;;;;;;3.33;2.22;;;;;;;;;;5025405;28;20045;-77
2023/10/12 09:38:55;;;;;;;2.65;2.25;;;;;;;;;;5026519;28;20022;-77
2023/10/12 09:41:28;;;;;;;2.33;2.05;;;;;;;;;;5006804;28;20022;-77
2023/10/12 09:43:56;;;;;;;3.03;2.20;;;;;;;;;;5005025;28;20411;-76
2023/10/12 09:46:25;;;;;;;2.35;2.13;;;;;;;;;;5023154;28;20085;-76
2023/10/12 09:49:06;;;;;;;5.05;2.80;;;;;;;;;;5028387;28;20044;-75
2023/10/12 09:51:47;;;;;;;3.58;2.60;;;;;;;;;;4999739;28;20413;-76
2023/10/12 09:54:16;;;;;;;4.85;2.67;;;;;;;;;;4999282;28;20529;-77
2023/10/12 09:56:57;;;;;;;4.25;3.10;;;;;;;;;;5001808;28;20036;-76
2023/10/12 09:59:24;;;;;;;6.57;3.10;;;;;;;;;;5002397;28;20098;-76
2023/10/12 10:01:50;;;;;;;7.85;3.22;;;;;;;;;;5017497;28;20026;-76
2023/10/12 10:07:25;;;;;;;4.97;2.88;;;;;;;;;;5018425;28;20101;-77
2023/10/12 10:09:54;;;;;;;5.03;2.80;;;;;;;;;;5017562;28;20036;-77
2023/10/12 10:12:20;;;;;;;4.93;2.97;;;;;;;;;;5017140;28;20030;-76
2023/10/12 10:15:10;;;;;;;4.18;3.03;;;;;;;;;;5016795;28;20022;-77
2023/10/12 10:17:46;;;;;;;4.55;3.15;;;;;;;;;;5017618;28;20034;-76
2023/10/12 10:22:56;;;;;;;5.15;3.10;;;;;;;;;;5017924;28;20030;-76
2023/10/12 10:25:33;;;;;;;4.50;3.20;;;;;;;;;;5018248;28;20026;-76
2023/10/12 10:28:06;;;;;;;3.88;2.80;;;;;;;;;;5022166;28;20026;-77
2023/10/12 10:30:38;;;;;;;10.60;3.53;;;;;;;;;;5018013;28;20018;-76
2023/10/12 10:33:06;;;;;;;;;;;;;;;;;;5017926;28;20034;-75
2023/10/12 10:35:50;;;;;;;11.82;3.72;;;;;;;;;;5017130;28;19928;-76
2023/10/12 10:38:17;;;;;;;8.40;3.78;;;;;;;;;;5017338;28;20418;-77
2023/10/12 10:40:47;;;;;;;9.32;3.88;;;;;;;;;;4999428;28;20024;-76
2023/10/12 10:43:16;;;;;;;5.30;3.97;;;;;;;;;;5017487;28;20021;-75
2023/10/12 10:45:53;;;;;;;6.18;3.67;;;;;;;;;;5022816;28;20392;-76
2023/10/12 10:48:20;;;;;;;4.78;3.00;;;;;;;;;;5015881;28;20029;-76
2023/10/12 10:50:50;;;;;;;6.38;3.60;;;;;;;;;;5015686;28;20112;-77
2023/10/12 10:53:16;;;;;;;6.45;4.25;;;;;;;;;;5014838;28;20416;-76
2023/10/12 10:55:43;;;;;;;4.80;3.45;;;;;;;;;;5015211;28;20033;-76
2023/10/12 10:58:09;;;;;;;7.03;3.30;;;;;;;;;;5016987;28;20041;-76
2023/10/12 11:00:45;;;;;;;7.72;3.25;;;;;;;;;;5016516;28;20449;-76
2023/10/12 11:03:15;;;;;;;6.28;3.20;;;;;;;;;;5015720;28;20026;-76
2023/10/12 11:05:43;;;;;;;10.18;3.45;;;;;;;;;;5014798;28;20022;-77
2023/10/12 11:08:19;;;;;;;7.78;3.65;;;;;;;;;;5015779;28;20030;-76
2023/10/12 11:13:32;;;;;;;8.38;3.63;;;;;;;;;;5015249;28;20068;-77
2023/10/12 11:16:03;;;;;;;6.50;3.00;;;;;;;;;;5015239;28;20068;-77
2023/10/12 11:18:29;;;;;;;8.68;3.63;;;;;;;;;;5015203;28;20064;-76
2023/10/12 11:21:00;;;;;;;6.43;3.30;;;;;;;;;;5016080;28;20477;-77
2023/10/12 11:23:26;;;;;;;3.92;3.53;;;;;;;;;;4998068;28;20034;-77
2023/10/12 11:26:04;;;;;;;7.45;4.07;;;;;;;;;;5017493;28;20033;-77
2023/10/12 11:28:30;;;;;;;8.90;3.83;;;;;;;;;;5017496;28;20022;-77
2023/10/12 11:31:02;;;;;;;6.05;3.15;;;;;;;;;;5016848;28;20026;-76
2023/10/12 11:33:29;;;;;;;8.52;3.70;;;;;;;;;;5016447;28;20030;-77
2023/10/12 11:36:00;;;;;;;11.30;4.00;;;;;;;;;;5016107;28;20014;-76
2023/10/12 11:38:27;;;;;;;5.07;2.88;;;;;;;;;;5016314;28;20018;-76
2023/10/12 11:40:55;;;;;;;5.50;3.40;;;;;;;;;;5015934;28;20033;-76
2023/10/12 11:43:44;;;;;;;10.43;3.80;;;;;;;;;;5021143;28;20029;-75
2023/10/12 11:46:14;;;;;;;3.70;3.35;;;;;;;;;;5024560;28;20096;-76
2023/10/12 11:48:40;;;;;;;8.00;3.40;;;;;;;;;;5029765;28;20496;-77
2023/10/12 11:51:13;;;;;;;5.95;3.38;;;;;;;;;;5028089;28;20026;-77
2023/10/12 11:53:41;;;;;;;5.57;3.05;;;;;;;;;;5030111;28;20049;-76
2023/10/12 11:56:14;;;;;;;3.17;2.40;;;;;;;;;;5013957;28;20018;-75
2023/10/12 11:58:41;;;;;;;10.98;4.07;;;;;;;;;;5017213;28;20029;-76
2023/10/12 12:01:10;;;;;;;5.20;3.72;;;;;;;;;;5014615;28;20097;-77
2023/10/12 12:03:39;;;;;;;7.90;3.60;;;;;;;;;;5014276;28;20109;-77
2023/10/12 12:06:11;;;;;;;3.78;3.05;;;;;;;;;;5022402;28;20026;-77
2023/10/12 12:08:37;;;;;;;5.40;3.58;;;;;;;;;;4996641;28;20026;-77
2023/10/12 12:11:03;;;;;;;3.83;2.97;;;;;;;;;;5014985;28;20452;-77
2023/10/12 12:13:35;;;;;;;5.75;2.80;;;;;;;;;;4996625;28;20068;-77
2023/10/12 12:16:02;;;;;;;7.70;3.13;;;;;;;;;;5013235;28;20473;-77
2023/10/12 12:18:29;;;;;;;6.95;3.58;;;;;;;;;;4996359;28;20441;-77
2023/10/12 12:20:56;;;;;;;3.38;3.00;;;;;;;;;;5013932;28;20028;-77
2023/10/12 12:23:27;;;;;;;5.43;3.30;;;;;;;;;;5013434;28;20050;-77
2023/10/12 12:26:01;;;;;;;8.50;3.67;;;;;;;;;;5013374;28;20477;-76
2023/10/12 12:28:32;;;;;;;11.23;3.67;;;;;;;;;;5013980;28;20477;-77
2023/10/12 12:31:00;;;;;;;7.65;4.28;;;;;;;;;;5014452;28;20081;-77
2023/10/12 12:33:30;;;;;;;6.90;3.28;;;;;;;;;;5013938;28;20022;-77
2023/10/12 12:36:08;;;;;;;6.05;3.17;;;;;;;;;;5014220;28;20086;-76
2023/10/12 12:41:06;;;;;;;7.13;2.95;;;;;;;;;;5022258;28;20097;-76
2023/10/12 12:43:36;;;;;;;5.25;2.63;;;;;;;;;;5006508;28;20026;-77
2023/10/12 12:46:04;;;;;;;3.67;2.95;;;;;;;;;;5031443;28;20022;-75
2023/10/12 12:48:30;;;;;;;5.10;3.33;;;;;;;;;;5029320;28;20030;-76
2023/10/12 12:50:56;;;;;;;3.95;3.05;;;;;;;;;;5016659;28;20026;-76
2023/10/12 12:53:23;;;;;;;5.40;3.65;;;;;;;;;;5017795;28;20073;-77
2023/10/12 12:55:49;;;;;;;4.63;2.85;;;;;;;;;;5017396;28;20022;-77
2023/10/12 12:58:15;;;;;;;6.93;3.63;;;;;;;;;;5017982;28;20481;-77
2023/10/12 13:00:46;;;;;;;4.72;3.30;;;;;;;;;;5027478;28;20030;-77
2023/10/12 13:03:13;;;;;;;6.07;3.45;;;;;;;;;;5015610;28;20040;-76
2023/10/12 13:05:39;;;;;;;6.90;3.50;;;;;;;;;;5031584;28;20026;-75
2023/10/12 13:08:07;;;;;;;11.52;3.33;;;;;;;;;;5034151;28;20026;-76
2023/10/12 13:10:34;;;;;;;5.50;3.35;;;;;;;;;;5033702;28;20018;-76
2023/10/12 13:13:01;;;;;;;3.95;2.95;;;;;;;;;;5033724;28;20164;-75
2023/10/12 13:15:27;;;;;;;8.13;3.55;;;;;;;;;;5026440;28;20029;-76
2023/10/12 13:17:56;;;;;;;4.43;3.00;;;;;;;;;;5015809;28;20034;-76
2023/10/12 13:20:22;;;;;;;5.50;3.22;;;;;;;;;;5009478;28;20022;-76
2023/10/12 13:22:51;;;;;;;8.13;3.80;;;;;;;;;;5023261;28;20025;-77
2023/10/12 13:25:20;;;;;;;5.63;3.15;;;;;;;;;;5013833;28;20112;-77
2023/10/12 13:27:49;;;;;;;7.65;3.28;;;;;;;;;;5023764;28;20021;-75
2023/10/12 13:30:16;;;;;;;3.10;2.80;;;;;;;;;;5017426;28;20018;-76
2023/10/12 13:32:42;;;;;;;8.93;3.47;;;;;;;;;;5017056;28;20420;-77
2023/10/12 13:35:18;;;;;;;6.40;3.20;;;;;;;;;;5017272;28;20026;-76
2023/10/12 13:37:46;;;;;;;4.93;3.70;;;;;;;;;;5017392;28;20034;-76
2023/10/12 13:40:15;;;;;;;15.65;4.10;;;;;;;;;;5016729;28;20028;-77
2023/10/12 13:42:44;;;;;;;5.25;3.10;;;;;;;;;;5017043;28;20030;-78
2023/10/12 13:45:13;;;;;;;9.85;3.80;;;;;;;;;;5016731;28;20457;-77
2023/10/12 13:47:42;;;;;;;5.75;2.88;;;;;;;;;;5016943;28;20087;-76
2023/10/12 13:50:10;;;;;;;4.03;2.88;;;;;;;;;;5004023;28;20026;-77
2023/10/12 13:52:40;;;;;;;3.97;3.05;;;;;;;;;;5016179;28;20021;-75
2023/10/12 13:55:11;;;;;;;6.68;2.92;;;;;;;;;;5035622;28;20045;-77
2023/10/12 13:57:37;;;;;;;8.10;3.40;;;;;;;;;;5031827;28;20639;-77
2023/10/12 14:00:04;;;;;;;7.25;3.65;;;;;;;;;;5023930;28;20192;-77
2023/10/12 14:02:30;;;;;;;6.63;3.65;;;;;;;;;;5023081;28;20029;-77
2023/10/12 14:04:57;;;;;;;5.47;3.30;;;;;;;;;;5019816;28;20018;-77
2023/10/12 14:07:24;;;;;;;4.03;3.30;;;;;;;;;;5019824;28;20034;-76
2023/10/12 14:09:50;;;;;;;3.20;2.80;;;;;;;;;;5006444;28;20068;-76
2023/10/12 14:12:16;;;;;;;4.10;3.42;;;;;;;;;;5006771;28;20094;-75
2023/10/12 14:14:42;;;;;;;4.53;2.75;;;;;;;;;;5031877;28;20022;-76
2023/10/12 14:17:08;;;;;;;3.30;2.53;;;;;;;;;;5028385;28;20030;-76
2023/10/12 14:19:35;;;;;;;5.78;2.80;;;;;;;;;;5034340;28;20040;-75
2023/10/12 14:22:04;;;;;;;3.38;2.63;;;;;;;;;;5031948;28;20021;-76
2023/10/12 14:24:33;;;;;;;6.20;2.72;;;;;;;;;;5032168;28;20044;-76
2023/10/12 14:27:00;;;;;;;3.75;2.60;;;;;;;;;;5014298;28;20049;-75
2023/10/12 14:29:29;;;;;;;9.15;3.13;;;;;;;;;;5004237;28;20400;-77
2023/10/12 14:31:56;;;;;;;10.55;3.03;;;;;;;;;;5016975;28;20123;-77
2023/10/12 14:34:22;;;;;;;8.13;3.00;;;;;;;;;;5000331;28;20034;-76
2023/10/12 14:36:49;;;;;;;7.32;3.13;;;;;;;;;;5016978;28;20026;-77
2023/10/12 14:39:23;;;;;;;8.63;3.22;;;;;;;;;;5016588;28;20022;-77
2023/10/12 14:41:49;;;;;;;4.72;2.88;;;;;;;;;;5024411;28;20022;-77
2023/10/12 14:44:16;;;;;;;3.88;2.67;;;;;;;;;;5027612;28;20030;-77
2023/10/12 14:46:44;;;;;;;8.15;2.90;;;;;;;;;;5029802;28;20092;-76
2023/10/12 14:49:11;;;;;;;8.85;3.83;;;;;;;;;;5034042;28;20025;-76
2023/10/12 14:51:37;;;;;;;4.57;2.47;;;;;;;;;;5015695;28;20034;-76
2023/10/12 14:54:06;;;;;;;5.38;2.47;;;;;;;;;;5011022;28;20022;-77
2023/10/12 14:56:32;;;;;;;7.05;2.80;;;;;;;;;;5022045;28;20022;-76
2023/10/12 14:58:58;;;;;;;6.68;2.65;;;;;;;;;;5017625;28;20026;-76
2023/10/12 15:01:27;;;;;;;5.88;2.60;;;;;;;;;;4998533;28;20462;-77
2023/10/12 15:03:54;;;;;;;7.78;3.13;;;;;;;;;;5015860;28;20022;-77
2023/10/12 15:06:21;;;;;;;5.70;3.10;;;;;;;;;;5000496;28;20076;-77
2023/10/12 15:08:48;;;;;;;4.88;2.40;;;;;;;;;;5018508;28;20049;-77
2023/10/12 15:11:14;;;;;;;5.45;2.90;;;;;;;;;;5021156;28;20022;-77
2023/10/12 15:13:41;;;;;;;4.35;2.90;;;;;;;;;;5021663;28;20033;-77
2023/10/12 15:16:10;;;;;;;4.88;2.53;;;;;;;;;;5019016;28;20029;-75
2023/10/12 15:18:39;;;;;;;3.83;2.15;;;;;;;;;;5000488;28;20018;-76
2023/10/12 15:21:10;;;;;;;4.90;2.90;;;;;;;;;;4999389;28;20025;-76
2023/10/12 15:23:36;;;;;;;2.95;2.30;;;;;;;;;;5016824;28;20132;-77
2023/10/12 15:26:02;;;;;;;3.83;2.40;;;;;;;;;;5016813;28;20084;-76
2023/10/12 15:28:28;;;;;;;4.07;2.10;;;;;;;;;;5015844;28;20477;-76
2023/10/12 15:30:54;;;;;;;3.05;2.58;;;;;;;;;;5014449;28;20465;-76
2023/10/12 15:33:22;;;;;;;3.20;2.67;;;;;;;;;;5014283;28;20555;-75
2023/10/12 15:35:48;;;;;;;4.53;2.78;;;;;;;;;;5014726;28;20496;-76
2023/10/12 15:38:14;;;;;;;3.60;2.90;;;;;;;;;;5014647;28;20029;-77
2023/10/12 15:40:42;;;;;;;5.38;2.42;;;;;;;;;;5016528;28;20018;-78
2023/10/12 15:43:15;;;;;;;3.13;2.80;;;;;;;;;;5015829;28;20112;-77
2023/10/12 15:45:43;;;;;;;4.90;2.70;;;;;;;;;;5017642;28;20072;-79
2023/10/12 15:48:09;;;;;;;3.92;2.50;;;;;;;;;;5015609;28;20022;-79
2023/10/12 15:50:35;;;;;;;2.47;2.10;;;;;;;;;;5016152;28;20362;-76
2023/10/12 15:53:01;;;;;;;2.55;2.30;;;;;;;;;;5016077;28;20536;-77
2023/10/12 15:55:27;;;;;;;3.42;2.17;;;;;;;;;;5016582;28;20018;-76
2023/10/12 15:57:54;;;;;;;3.47;2.72;;;;;;;;;;5014946;28;20385;-76
2023/10/12 16:00:24;;;;;;;4.32;2.58;;;;;;;;;;5015253;28;20128;-76
2023/10/12 16:02:57;;;;;;;3.83;2.50;;;;;;;;;;5014929;28;20094;-78
2023/10/12 16:05:24;;;;;;;2.88;2.25;;;;;;;;;;4997525;28;20026;-76
2023/10/12 16:07:51;;;;;;;2.58;2.17;;;;;;;;;;5015663;28;20026;-77
2023/10/12 16:10:18;;;;;;;3.83;2.55;;;;;;;;;;5014384;28;20029;-77
2023/10/12 16:12:45;;;;;;;2.58;2.10;;;;;;;;;;5015296;28;20026;-77
2023/10/12 16:15:12;;;;;;;2.40;2.20;;;;;;;;;;5015266;28;20476;-75
2023/10/12 16:17:40;;;;;;;3.58;2.17;;;;;;;;;;5015467;28;20389;-76
2023/10/12 16:20:09;;;;;;;3.45;2.55;;;;;;;;;;5016114;28;20045;-76
2023/10/12 16:22:41;;;;;;;2.65;2.30;;;;;;;;;;5016072;28;20406;-76
2023/10/12 16:25:08;;;;;;;2.17;1.98;;;;;;;;;;5019610;28;20026;-77
2023/10/12 16:27:34;;;;;;;2.30;1.95;;;;;;;;;;5021546;28;20095;-76
2023/10/12 16:30:04;;;;;;;2.65;1.83;;;;;;;;;;4997008;28;20083;-77
2023/10/12 16:32:30;;;;;;;2.65;2.45;;;;;;;;;;4998440;28;20026;-78
2023/10/12 16:34:56;;;;;;;2.47;2.15;;;;;;;;;;5015819;28;20030;-77
2023/10/12 16:37:22;;;;;;;2.85;1.70;;;;;;;;;;5016641;28;20041;-76
2023/10/12 16:39:53;;;;;;;2.05;1.90;;;;;;;;;;5014895;28;20048;-76
2023/10/12 16:42:20;;;;;;;1.80;1.70;;;;;;;;;;5013819;28;20022;-76
2023/10/12 16:44:48;;;;;;;2.03;1.83;;;;;;;;;;5015349;28;20500;-76